Time;durP1;ratioP1;P1;durP2;ratioP2;P2;SDS_P1;SDS_P2;PMS_P1;PMS_P2;Temp;Humidity;BMP_temperature;BMP_pressure;BME280_temperature;BME280_humidity;BME280_pressure;Samples;Min_cycle;Max_cycle;Signal;HPM_P1;HPM_P2
2022/08/04 00:00:09;;;;;;;1.23;1.00;;;29.60;47.80;;;;;;5021258;28;20032;-68
2022/08/04 00:02:50;;;;;;;1.38;0.90;;;29.60;47.80;;;;;;5039955;28;20424;-68
2022/08/04 00:05:28;;;;;;;1.33;1.00;;;29.60;47.90;;;;;;5039112;28;20036;-69
2022/08/04 00:08:26;;;;;;;0.90;0.70;;;29.50;47.90;;;;;;5037525;28;20033;-69
2022/08/04 00:10:57;;;;;;;1.45;0.95;;;29.50;48.10;;;;;;5039142;28;20380;-68
2022/08/04 00:13:26;;;;;;;1.10;0.70;;;29.60;48.10;;;;;;5039081;28;20116;-67
2022/08/04 00:15:58;;;;;;;1.08;0.90;;;29.60;48.20;;;;;;5041601;28;20056;-68
2022/08/04 00:18:33;;;;;;;1.50;1.00;;;29.50;48.20;;;;;;5038539;28;20439;-67
2022/08/04 00:21:03;;;;;;;0.95;0.80;;;29.60;48.30;;;;;;5041999;28;20021;-68
2022/08/04 00:23:32;;;;;;;1.40;0.90;;;29.60;48.30;;;;;;5047296;28;20070;-68
2022/08/04 00:25:58;;;;;;;1.20;1.00;;;29.50;48.20;;;;;;5048906;28;20032;-67
2022/08/04 00:28:24;;;;;;;1.30;1.00;;;29.50;48.20;;;;;;5052546;28;20029;-67
2022/08/04 00:30:50;;;;;;;1.13;0.80;;;29.50;48.70;;;;;;5049128;28;20056;-67
2022/08/04 00:33:19;;;;;;;1.27;0.80;;;29.50;48.20;;;;;;5050822;28;20089;-66
2022/08/04 00:35:47;;;;;;;;;;;29.50;48.10;;;;;;5047343;28;20035;-68
2022/08/04 00:38:16;;;;;;;1.08;0.80;;;29.60;48.10;;;;;;5049475;28;19944;-68
2022/08/04 00:41:11;;;;;;;1.00;0.90;;;29.60;48.20;;;;;;5048148;28;20033;-68
2022/08/04 00:44:09;;;;;;;1.13;0.80;;;29.60;48.00;;;;;;5055477;28;20017;-67
2022/08/04 00:46:59;;;;;;;1.10;0.80;;;29.60;48.40;;;;;;5050408;28;20037;-68
2022/08/04 00:49:39;;;;;;;1.23;0.88;;;29.60;48.40;;;;;;5044266;28;20021;-68
2022/08/04 00:52:21;;;;;;;0.90;0.90;;;29.60;48.40;;;;;;5045764;28;20049;-67
2022/08/04 00:55:18;;;;;;;1.30;0.80;;;29.50;48.30;;;;;;5042133;28;20151;-67
2022/08/04 00:57:55;;;;;;;0.90;0.80;;;29.60;48.30;;;;;;5039646;28;20097;-68
2022/08/04 01:00:21;;;;;;;0.77;0.75;;;29.60;48.20;;;;;;5040597;28;20060;-68
2022/08/04 01:02:50;;;;;;;1.13;0.88;;;29.70;48.20;;;;;;5039118;28;20057;-67
2022/08/04 01:05:28;;;;;;;1.50;0.90;;;29.60;48.10;;;;;;5039315;28;20057;-68
2022/08/04 01:07:59;;;;;;;0.98;0.80;;;29.70;48.10;;;;;;5039848;28;20028;-67
2022/08/04 01:10:53;;;;;;;1.20;0.63;;;29.70;47.90;;;;;;5038619;28;20025;-67
2022/08/04 01:13:50;;;;;;;1.40;1.00;;;29.70;48.00;;;;;;5038516;28;20397;-69
2022/08/04 01:16:21;;;;;;;1.20;0.90;;;29.70;47.90;;;;;;5038472;28;20122;-69
2022/08/04 01:19:11;;;;;;;0.82;0.77;;;29.70;47.90;;;;;;5041378;28;20029;-68
2022/08/04 01:22:16;;;;;;;1.52;1.10;;;29.70;48.00;;;;;;5040593;28;20029;-68
2022/08/04 01:25:00;;;;;;;0.80;0.80;;;29.70;48.10;;;;;;5043582;28;20037;-68
2022/08/04 01:27:43;;;;;;;1.10;0.80;;;29.70;48.00;;;;;;5042352;28;20061;-68
2022/08/04 01:30:08;;;;;;;1.20;0.80;;;29.70;48.00;;;;;;5042649;28;20063;-68
2022/08/04 01:32:42;;;;;;;2.60;0.82;;;29.70;47.90;;;;;;5042130;28;20029;-67
2022/08/04 01:35:22;;;;;;;1.60;1.00;;;29.70;47.90;;;;;;5044072;28;20032;-67
2022/08/04 01:37:51;;;;;;;1.23;0.85;;;29.70;47.80;;;;;;5043352;28;20056;-68
2022/08/04 01:40:17;;;;;;;1.40;0.85;;;29.80;47.90;;;;;;5041647;28;20433;-68
2022/08/04 01:42:46;;;;;;;1.13;0.80;;;29.80;47.80;;;;;;5043898;28;20361;-68
2022/08/04 01:45:12;;;;;;;;;;;29.80;47.80;;;;;;5042890;28;20095;-68
2022/08/04 01:47:52;;;;;;;1.35;0.98;;;29.80;47.80;;;;;;5042972;28;19913;-67
2022/08/04 01:50:18;;;;;;;1.10;0.90;;;29.70;47.90;;;;;;5043820;28;20128;-68
2022/08/04 01:52:44;;;;;;;0.80;0.80;;;29.70;48.00;;;;;;5043483;28;20029;-68
2022/08/04 01:55:12;;;;;;;1.40;0.90;;;29.70;47.90;;;;;;5042119;28;20022;-68
2022/08/04 01:57:42;;;;;;;1.00;0.90;;;29.80;47.90;;;;;;5042997;28;20021;-68
2022/08/04 02:00:13;;;;;;;0.80;0.80;;;29.80;47.90;;;;;;5042890;28;20025;-68
2022/08/04 02:02:39;;;;;;;1.20;0.80;;;29.80;47.80;;;;;;5041899;28;20108;-67
2022/08/04 02:05:05;;;;;;;1.17;0.80;;;29.80;47.80;;;;;;5043022;28;20108;-68
2022/08/04 02:07:47;;;;;;;1.35;1.00;;;29.70;47.90;;;;;;5043898;28;20491;-68
2022/08/04 02:10:29;;;;;;;0.75;0.75;;;29.70;47.80;;;;;;5041843;28;20104;-66
2022/08/04 02:13:06;;;;;;;1.25;0.80;;;29.70;47.80;;;;;;5042150;28;20048;-67
2022/08/04 02:16:03;;;;;;;1.38;0.95;;;29.70;47.90;;;;;;5041849;28;20389;-67
2022/08/04 02:19:13;;;;;;;1.52;0.90;;;29.80;47.80;;;;;;5042097;28;20018;-67
2022/08/04 02:21:40;;;;;;;1.13;0.90;;;29.80;47.80;;;;;;5026813;28;20060;-68
2022/08/04 02:24:11;;;;;;;1.00;0.90;;;29.80;47.70;;;;;;5042905;28;20079;-67
2022/08/04 02:26:41;;;;;;;1.65;1.00;;;29.80;47.70;;;;;;5042791;28;20065;-68
2022/08/04 02:29:16;;;;;;;1.83;0.90;;;29.80;47.80;;;;;;5042090;28;20461;-68
2022/08/04 02:31:53;;;;;;;1.10;0.82;;;29.80;47.70;;;;;;5041269;28;20389;-68
2022/08/04 02:34:37;;;;;;;2.05;1.10;;;29.90;47.70;;;;;;5041648;28;20022;-68
2022/08/04 02:37:04;;;;;;;1.48;0.90;;;29.90;47.60;;;;;;5042258;28;20449;-68
2022/08/04 02:39:34;;;;;;;0.98;0.80;;;29.80;47.50;;;;;;5041680;28;20064;-68
2022/08/04 02:42:03;;;;;;;0.90;0.80;;;29.80;47.60;;;;;;5042170;28;20075;-67
2022/08/04 02:44:30;;;;;;;1.05;0.90;;;29.80;47.70;;;;;;5042342;28;20105;-68
2022/08/04 02:46:56;;;;;;;1.42;0.88;;;29.80;47.60;;;;;;5042173;28;20041;-68
2022/08/04 02:49:22;;;;;;;1.17;0.90;;;29.80;47.50;;;;;;5042106;28;20051;-69
2022/08/04 02:51:52;;;;;;;1.00;0.90;;;29.90;47.60;;;;;;5041752;28;20125;-68
2022/08/04 02:54:22;;;;;;;1.00;0.80;;;29.90;47.70;;;;;;5043876;28;20024;-68
2022/08/04 02:56:51;;;;;;;1.25;0.85;;;29.80;47.60;;;;;;5042591;28;20029;-67
2022/08/04 02:59:22;;;;;;;2.05;0.90;;;29.80;47.50;;;;;;5041492;28;20033;-68
2022/08/04 03:01:47;;;;;;;1.17;0.90;;;29.80;47.50;;;;;;5038075;28;20052;-68
2022/08/04 03:04:13;;;;;;;0.70;0.70;;;29.80;47.50;;;;;;5039962;28;20552;-67
2022/08/04 03:07:06;;;;;;;1.10;0.80;;;29.80;47.50;;;;;;5041838;28;20064;-66
2022/08/04 03:09:58;;;;;;;1.10;0.90;;;29.70;47.40;;;;;;5040417;28;20083;-68
2022/08/04 03:12:32;;;;;;;0.98;0.82;;;29.70;47.40;;;;;;5039978;28;20034;-66
2022/08/04 03:15:07;;;;;;;1.23;0.90;;;29.70;47.50;;;;;;5040719;28;20034;-68
2022/08/04 03:18:09;;;;;;;1.10;0.90;;;29.70;47.50;;;;;;5040628;28;20113;-67
2022/08/04 03:20:58;;;;;;;0.90;0.90;;;29.70;47.40;;;;;;5040266;28;20062;-68
2022/08/04 03:23:45;;;;;;;1.15;0.90;;;29.60;45.30;;;;;;5040721;28;20032;-67
2022/08/04 03:26:28;;;;;;;1.80;1.10;;;29.50;43.60;;;;;;5039531;28;20435;-67
2022/08/04 03:29:10;;;;;;;1.77;1.10;;;29.40;43.30;;;;;;5040586;28;20426;-65
2022/08/04 03:32:04;;;;;;;2.00;1.17;;;29.30;42.70;;;;;;5041691;28;20043;-67
2022/08/04 03:34:44;;;;;;;2.55;1.30;;;29.20;42.40;;;;;;5039546;28;20130;-69
2022/08/04 03:37:23;;;;;;;1.40;1.10;;;29.20;42.00;;;;;;5041373;28;20534;-68
2022/08/04 03:40:39;;;;;;;1.70;1.10;;;29.10;41.80;;;;;;5042485;28;20065;-68
2022/08/04 03:43:32;;;;;;;1.23;0.95;;;29.00;41.90;;;;;;5039620;28;20122;-67
2022/08/04 03:46:35;;;;;;;1.85;1.17;;;28.90;41.70;;;;;;5039849;28;20419;-65
2022/08/04 03:49:44;;;;;;;1.40;1.10;;;28.80;41.80;;;;;;5041310;28;20416;-66
2022/08/04 03:55:43;;;;;;;1.73;1.10;;;28.70;41.70;;;;;;5041007;28;20052;-66
2022/08/04 03:58:54;;;;;;;1.38;1.10;;;28.60;41.70;;;;;;5040303;28;20108;-66
2022/08/04 04:01:43;;;;;;;1.75;1.10;;;28.50;42.00;;;;;;5040495;28;20033;-68
2022/08/04 04:04:33;;;;;;;1.95;1.10;;;28.40;41.90;;;;;;5039686;28;20082;-66
2022/08/04 04:07:30;;;;;;;1.40;1.10;;;28.30;41.80;;;;;;5040615;28;20078;-66
2022/08/04 04:10:11;;;;;;;1.27;1.08;;;28.20;41.80;;;;;;5039081;28;20018;-66
2022/08/04 04:12:54;;;;;;;2.00;1.10;;;28.20;42.00;;;;;;5039528;28;20400;-68
2022/08/04 04:15:52;;;;;;;2.20;1.20;;;28.10;41.90;;;;;;5040493;28;20044;-68
2022/08/04 04:18:35;;;;;;;2.03;1.20;;;28.00;41.60;;;;;;5039276;28;20033;-67
2022/08/04 04:21:34;;;;;;;1.95;1.25;;;28.00;41.70;;;;;;5041655;28;20492;-67
2022/08/04 04:24:11;;;;;;;1.85;1.10;;;27.90;41.90;;;;;;5040916;28;20507;-67
2022/08/04 04:26:49;;;;;;;2.72;1.30;;;27.80;42.30;;;;;;5040774;28;20498;-68
2022/08/04 04:29:44;;;;;;;1.65;1.30;;;27.70;41.90;;;;;;5039770;28;20087;-66
2022/08/04 04:32:13;;;;;;;1.88;1.20;;;27.60;42.00;;;;;;5040539;28;20098;-65
2022/08/04 04:34:46;;;;;;;;;;;27.60;42.10;;;;;;5040710;28;20037;-66
2022/08/04 04:37:36;;;;;;;1.80;1.30;;;27.50;42.20;;;;;;5039430;28;20003;-66
2022/08/04 04:40:20;;;;;;;2.25;1.33;;;27.40;42.20;;;;;;5039444;28;20025;-67
2022/08/04 04:42:58;;;;;;;1.58;1.20;;;27.40;42.30;;;;;;5037849;28;20366;-66
2022/08/04 04:46:01;;;;;;;2.95;1.40;;;27.30;42.20;;;;;;5040406;28;20379;-66
2022/08/04 04:48:43;;;;;;;1.67;1.20;;;27.20;42.30;;;;;;5040250;28;20100;-69
2022/08/04 04:51:15;;;;;;;2.00;1.13;;;27.10;42.50;;;;;;5040774;28;20112;-66
2022/08/04 04:54:05;;;;;;;1.90;1.30;;;26.90;42.50;;;;;;5039896;28;20029;-66
2022/08/04 04:56:58;;;;;;;1.75;1.10;;;26.70;43.10;;;;;;5041080;28;20111;-66
2022/08/04 04:59:27;;;;;;;2.20;1.50;;;26.60;43.70;;;;;;5044581;28;20079;-65
2022/08/04 05:02:05;;;;;;;;;;;26.60;43.80;;;;;;5041705;28;20493;-66
2022/08/04 05:05:13;;;;;;;1.90;1.10;;;26.70;43.80;;;;;;5043476;28;20321;-66
2022/08/04 05:08:17;;;;;;;3.08;1.40;;;26.70;43.80;;;;;;5043189;28;20069;-66
2022/08/04 05:11:03;;;;;;;2.72;1.40;;;26.70;43.80;;;;;;5039807;28;20465;-66
2022/08/04 05:13:47;;;;;;;3.22;1.60;;;26.70;43.90;;;;;;5043041;28;20496;-66
2022/08/04 05:16:21;;;;;;;2.67;1.40;;;26.60;43.90;;;;;;5042649;28;20025;-66
2022/08/04 05:19:22;;;;;;;4.55;1.83;;;26.60;44.20;;;;;;5042462;28;20021;-67
2022/08/04 05:21:55;;;;;;;2.40;1.55;;;26.60;44.40;;;;;;5042755;28;20030;-66
2022/08/04 05:24:24;;;;;;;2.55;1.42;;;26.50;44.60;;;;;;5043319;28;20115;-67
2022/08/04 05:26:54;;;;;;;2.85;1.73;;;26.50;44.90;;;;;;5043875;28;20508;-67
2022/08/04 05:29:30;;;;;;;3.80;1.80;;;26.40;45.00;;;;;;5043474;28;20116;-67
2022/08/04 05:31:58;;;;;;;3.95;1.80;;;26.40;45.30;;;;;;5042357;28;20116;-66
2022/08/04 05:34:29;;;;;;;3.65;1.80;;;26.40;45.50;;;;;;5044355;28;20026;-65
2022/08/04 05:37:00;;;;;;;3.08;1.73;;;26.40;45.70;;;;;;5043210;28;20376;-66
2022/08/04 05:39:28;;;;;;;4.18;1.83;;;26.30;45.80;;;;;;5043750;28;20059;-65
2022/08/04 05:41:56;;;;;;;3.58;1.73;;;26.30;46.00;;;;;;5043281;28;20471;-67
2022/08/04 05:44:24;;;;;;;3.67;1.90;;;26.30;46.30;;;;;;5043077;28;20037;-67
2022/08/04 05:46:55;;;;;;;2.92;1.75;;;26.20;46.40;;;;;;5042452;28;20116;-67
2022/08/04 05:49:26;;;;;;;4.07;2.10;;;26.20;46.50;;;;;;5042861;28;20380;-67
2022/08/04 05:51:54;;;;;;;3.15;2.00;;;26.10;46.60;;;;;;5043228;28;21304;-66
2022/08/04 05:54:21;;;;;;;4.13;1.80;;;26.20;46.70;;;;;;5040746;28;20091;-65
2022/08/04 05:56:48;;;;;;;3.20;1.90;;;26.10;46.70;;;;;;5043149;28;20036;-65
2022/08/04 05:59:15;;;;;;;2.60;1.50;;;26.10;46.70;;;;;;5040514;28;20495;-66
2022/08/04 06:01:43;;;;;;;4.13;1.80;;;26.10;46.70;;;;;;5040984;28;20041;-67
2022/08/04 06:04:11;;;;;;;3.78;1.60;;;26.10;46.80;;;;;;5041630;28;20041;-67
2022/08/04 06:06:38;;;;;;;3.13;1.75;;;26.10;46.80;;;;;;5040562;28;20502;-67
2022/08/04 06:09:03;;;;;;;3.90;1.67;;;26.10;46.80;;;;;;5041313;28;20060;-67
2022/08/04 06:11:30;;;;;;;3.03;1.63;;;26.20;46.90;;;;;;5042198;28;20478;-66
2022/08/04 06:14:02;;;;;;;2.92;1.60;;;26.10;46.90;;;;;;5041490;28;20510;-66
2022/08/04 06:16:37;;;;;;;3.05;1.70;;;26.20;47.00;;;;;;5042737;28;20018;-67
2022/08/04 06:19:08;;;;;;;2.33;1.40;;;26.20;47.10;;;;;;5038821;28;20121;-67
2022/08/04 06:21:37;;;;;;;3.53;1.63;;;26.20;47.30;;;;;;5041633;28;20021;-67
2022/08/04 06:24:09;;;;;;;2.55;1.48;;;26.20;47.30;;;;;;5042952;28;20021;-67
2022/08/04 06:26:35;;;;;;;2.50;1.63;;;26.20;47.40;;;;;;5042724;28;20053;-66
2022/08/04 06:29:02;;;;;;;2.40;1.50;;;26.20;47.40;;;;;;5040628;28;20421;-66
2022/08/04 06:31:42;;;;;;;3.30;1.52;;;26.20;47.40;;;;;;5042134;28;20541;-66
2022/08/04 06:34:09;;;;;;;1.90;1.40;;;26.20;47.40;;;;;;5041760;28;20017;-67
2022/08/04 06:36:37;;;;;;;3.05;1.70;;;26.20;47.40;;;;;;5041133;28;20025;-67
2022/08/04 06:39:04;;;;;;;2.28;1.35;;;26.20;47.40;;;;;;5039800;28;20076;-67
2022/08/04 06:41:31;;;;;;;2.50;1.35;;;26.20;47.40;;;;;;5042115;28;20086;-65
2022/08/04 06:44:06;;;;;;;2.13;1.35;;;26.20;47.40;;;;;;5040550;28;20116;-67
2022/08/04 06:46:34;;;;;;;2.67;1.65;;;26.20;47.40;;;;;;5041338;28;20391;-67
2022/08/04 06:49:00;;;;;;;2.47;1.40;;;26.20;47.40;;;;;;5042791;28;20435;-65
2022/08/04 06:51:29;;;;;;;4.65;1.88;;;26.20;47.50;;;;;;5041428;28;20172;-67
2022/08/04 06:53:54;;;;;;;2.57;1.37;;;26.20;47.40;;;;;;5040389;28;20393;-66
2022/08/04 06:56:23;;;;;;;2.70;1.40;;;26.20;47.40;;;;;;5041274;28;20270;-67
2022/08/04 06:58:50;;;;;;;2.05;1.30;;;26.20;47.50;;;;;;5040248;28;20020;-67
2022/08/04 07:01:19;;;;;;;3.28;1.60;;;26.20;47.50;;;;;;5040745;28;20036;-66
2022/08/04 07:03:45;;;;;;;2.25;1.48;;;26.20;47.50;;;;;;5040268;28;20035;-66
2022/08/04 07:06:11;;;;;;;2.67;1.50;;;26.20;47.50;;;;;;5039742;28;20124;-67
2022/08/04 07:08:38;;;;;;;3.50;1.50;;;26.20;47.50;;;;;;5041220;28;20083;-66
2022/08/04 07:11:05;;;;;;;2.80;1.52;;;26.30;47.60;;;;;;5041060;28;20048;-67
2022/08/04 07:13:31;;;;;;;2.40;1.60;;;26.30;47.60;;;;;;5040113;28;20095;-67
2022/08/04 07:15:58;;;;;;;2.47;1.30;;;26.20;47.50;;;;;;5040502;28;20025;-66
2022/08/04 07:18:24;;;;;;;2.42;1.33;;;26.20;47.50;;;;;;5038696;28;20068;-66
2022/08/04 07:20:50;;;;;;;2.45;1.60;;;26.20;47.50;;;;;;5039574;28;20475;-66
2022/08/04 07:23:21;;;;;;;2.80;1.40;;;26.30;47.60;;;;;;5040831;28;20170;-67
2022/08/04 07:25:54;;;;;;;2.53;1.42;;;26.30;47.60;;;;;;5040696;28;20029;-67
2022/08/04 07:28:21;;;;;;;2.35;1.38;;;26.30;47.70;;;;;;5040227;28;20028;-66
2022/08/04 07:30:48;;;;;;;2.10;1.20;;;26.30;47.60;;;;;;5041231;28;20059;-66
2022/08/04 07:33:16;;;;;;;2.25;1.17;;;26.30;47.70;;;;;;5040535;28;20026;-66
2022/08/04 07:35:43;;;;;;;1.90;1.23;;;26.30;47.70;;;;;;5039539;28;20033;-66
2022/08/04 07:38:10;;;;;;;2.35;1.20;;;26.30;47.70;;;;;;5040796;28;20159;-66
2022/08/04 07:40:37;;;;;;;1.73;1.02;;;26.30;47.70;;;;;;5038928;28;20028;-66
2022/08/04 07:43:04;;;;;;;1.88;1.10;;;26.30;47.70;;;;;;5040438;28;20033;-66
2022/08/04 07:45:30;;;;;;;1.73;1.15;;;26.30;47.70;;;;;;5039476;28;20087;-66
2022/08/04 07:47:56;;;;;;;2.47;1.27;;;26.30;47.70;;;;;;5040918;28;20021;-66
2022/08/04 07:50:22;;;;;;;1.67;1.10;;;26.30;47.70;;;;;;5040707;28;20701;-67
2022/08/04 07:52:48;;;;;;;2.22;1.30;;;26.40;47.90;;;;;;5038811;28;20420;-66
2022/08/04 07:55:15;;;;;;;2.25;1.20;;;26.30;47.80;;;;;;5038334;28;20387;-66
2022/08/04 07:57:41;;;;;;;1.70;1.13;;;26.30;47.80;;;;;;5040787;28;20472;-66
2022/08/04 08:00:07;;;;;;;2.60;1.50;;;26.30;47.90;;;;;;5039685;28;20029;-66
2022/08/04 08:02:35;;;;;;;1.70;1.15;;;26.30;47.90;;;;;;5039210;28;20124;-66
2022/08/04 08:05:01;;;;;;;1.80;1.30;;;26.40;47.90;;;;;;5037731;28;20031;-66
2022/08/04 08:07:27;;;;;;;1.50;0.95;;;26.40;48.00;;;;;;5039439;28;20057;-66
2022/08/04 08:09:52;;;;;;;1.52;1.02;;;26.40;48.00;;;;;;5040259;28;20075;-65
2022/08/04 08:12:18;;;;;;;1.90;1.10;;;26.40;48.00;;;;;;5039106;28;20492;-66
2022/08/04 08:14:45;;;;;;;3.00;1.40;;;26.40;48.00;;;;;;5040030;28;20079;-66
2022/08/04 08:17:10;;;;;;;2.28;1.20;;;26.30;48.00;;;;;;5038769;28;20078;-66
2022/08/04 08:19:37;;;;;;;2.17;1.25;;;26.40;48.00;;;;;;5040262;28;20029;-67
2022/08/04 08:22:03;;;;;;;2.58;1.30;;;26.40;48.10;;;;;;5039938;28;20044;-66
2022/08/04 08:24:33;;;;;;;1.95;1.25;;;26.40;48.00;;;;;;5038414;28;20393;-66
2022/08/04 08:27:03;;;;;;;1.75;1.13;;;26.40;48.00;;;;;;5038932;28;20033;-67
2022/08/04 08:29:29;;;;;;;1.88;1.20;;;26.40;48.10;;;;;;5044685;28;20079;-66
2022/08/04 08:31:55;;;;;;;2.47;1.15;;;26.40;48.10;;;;;;5042578;28;20047;-66
2022/08/04 08:34:21;;;;;;;1.73;1.10;;;26.40;48.10;;;;;;5042080;28;20021;-66
2022/08/04 08:36:56;;;;;;;2.70;1.13;;;26.40;48.00;;;;;;5043129;28;20034;-66
2022/08/04 08:39:35;;;;;;;2.20;1.20;;;26.40;48.10;;;;;;5042158;28;20029;-66
2022/08/04 08:42:09;;;;;;;1.70;1.10;;;26.40;48.10;;;;;;5042711;28;20095;-67
2022/08/04 08:45:12;;;;;;;1.88;1.10;;;26.40;48.10;;;;;;5043610;28;20451;-66
2022/08/04 08:48:01;;;;;;;2.60;1.40;;;26.40;48.10;;;;;;5043361;28;20033;-65
2022/08/04 08:50:30;;;;;;;2.30;1.20;;;26.40;48.20;;;;;;5043898;28;20079;-67
2022/08/04 08:53:28;;;;;;;1.92;1.20;;;26.40;48.10;;;;;;5042926;28;20112;-66
2022/08/04 08:56:21;;;;;;;1.63;1.20;;;26.40;48.10;;;;;;5043080;28;20534;-66
2022/08/04 08:59:24;;;;;;;1.85;1.20;;;26.40;48.20;;;;;;5044273;28;20051;-66
2022/08/04 09:02:34;;;;;;;2.08;1.25;;;26.40;48.10;;;;;;5043991;28;20041;-67
2022/08/04 09:05:35;;;;;;;1.90;1.27;;;26.40;48.20;;;;;;5044405;28;20112;-66
2022/08/04 09:08:28;;;;;;;1.88;1.15;;;26.40;48.20;;;;;;5000510;28;20072;-66
2022/08/04 09:11:05;;;;;;;1.75;1.25;;;26.40;48.20;;;;;;5043930;28;20048;-66
2022/08/04 09:13:55;;;;;;;2.42;1.20;;;26.40;48.20;;;;;;5040262;28;20048;-66
2022/08/04 09:16:39;;;;;;;2.40;1.30;;;26.50;48.20;;;;;;5040886;28;20033;-67
2022/08/04 09:19:16;;;;;;;1.85;1.02;;;26.50;48.20;;;;;;5043970;28;20465;-66
2022/08/04 09:22:01;;;;;;;2.15;1.23;;;26.50;48.20;;;;;;5042974;28;20092;-66
2022/08/04 09:24:44;;;;;;;1.65;1.13;;;26.50;48.20;;;;;;5043741;28;20022;-66
2022/08/04 09:27:18;;;;;;;1.58;1.10;;;26.50;48.20;;;;;;5041857;28;20025;-66
2022/08/04 09:30:04;;;;;;;1.92;1.20;;;26.50;48.20;;;;;;5042109;28;20354;-66
2022/08/04 09:32:55;;;;;;;2.55;1.30;;;26.50;48.20;;;;;;5041342;28;20029;-66
2022/08/04 09:35:53;;;;;;;2.25;1.35;;;26.50;48.20;;;;;;5042565;28;20500;-66
2022/08/04 09:38:26;;;;;;;1.80;1.20;;;26.50;48.20;;;;;;5042195;28;20468;-66
2022/08/04 09:41:02;;;;;;;1.67;1.20;;;26.50;48.20;;;;;;5043888;28;20040;-67
2022/08/04 09:43:45;;;;;;;1.58;1.13;;;26.50;48.20;;;;;;5042093;28;20025;-66
2022/08/04 09:46:26;;;;;;;2.08;1.10;;;26.50;48.20;;;;;;5041001;28;20094;-67
2022/08/04 09:49:15;;;;;;;1.63;1.13;;;26.50;48.20;;;;;;5041989;28;20227;-67
2022/08/04 09:52:08;;;;;;;2.03;1.20;;;26.60;48.30;;;;;;5042365;28;20116;-66
2022/08/04 09:55:07;;;;;;;2.20;1.10;;;26.60;48.20;;;;;;5042739;28;20065;-67
2022/08/04 09:57:59;;;;;;;1.73;1.17;;;26.60;48.30;;;;;;5043615;28;20068;-68
2022/08/04 10:00:32;;;;;;;1.30;1.10;;;26.60;48.30;;;;;;5042868;28;20018;-66
2022/08/04 10:02:59;;;;;;;1.60;1.10;;;26.60;48.20;;;;;;5042082;28;20496;-65
2022/08/04 10:05:38;;;;;;;1.55;1.17;;;26.50;48.20;;;;;;5042788;28;20072;-68
2022/08/04 10:08:21;;;;;;;1.35;1.10;;;26.60;48.20;;;;;;5042388;28;20033;-66
2022/08/04 10:10:58;;;;;;;1.50;1.10;;;26.60;48.20;;;;;;5042807;28;20040;-65
2022/08/04 10:13:49;;;;;;;1.40;1.00;;;26.60;48.30;;;;;;5042876;28;20431;-68
2022/08/04 10:16:29;;;;;;;1.77;1.23;;;26.60;48.20;;;;;;5043456;28;20021;-68
2022/08/04 10:19:19;;;;;;;1.90;1.20;;;26.60;48.20;;;;;;5042473;28;20032;-69
2022/08/04 10:21:57;;;;;;;1.20;1.00;;;26.60;48.20;;;;;;5041568;28;20416;-66
2022/08/04 10:24:41;;;;;;;1.45;1.00;;;26.60;48.20;;;;;;5042653;28;20460;-68
2022/08/04 10:27:15;;;;;;;1.65;1.08;;;26.70;48.30;;;;;;5041905;28;20047;-68
2022/08/04 10:29:43;;;;;;;1.25;0.90;;;26.70;48.30;;;;;;5042770;28;20067;-66
2022/08/04 10:32:44;;;;;;;1.27;0.98;;;26.70;48.30;;;;;;5041513;28;20114;-66
2022/08/04 10:35:16;;;;;;;1.75;1.17;;;26.70;48.30;;;;;;5042030;28;20029;-66
2022/08/04 10:37:50;;;;;;;2.25;1.20;;;26.70;48.30;;;;;;5043044;28;20385;-66
2022/08/04 10:40:37;;;;;;;1.65;1.08;;;26.70;48.30;;;;;;5042617;28;20021;-66
2022/08/04 10:43:06;;;;;;;1.30;0.98;;;26.70;48.30;;;;;;5041273;28;20045;-66
2022/08/04 10:45:49;;;;;;;1.42;1.10;;;26.70;48.30;;;;;;5041663;28;20354;-66
2022/08/04 10:48:20;;;;;;;1.65;0.98;;;26.70;48.30;;;;;;5041807;28;20180;-67
2022/08/04 10:50:58;;;;;;;1.42;1.10;;;26.70;48.30;;;;;;5040880;28;20474;-66
2022/08/04 10:53:28;;;;;;;1.20;1.00;;;26.70;48.30;;;;;;5041007;28;20029;-67
2022/08/04 10:56:03;;;;;;;1.48;1.00;;;26.70;48.30;;;;;;5041803;28;20025;-65
2022/08/04 10:58:37;;;;;;;1.90;1.00;;;26.70;48.30;;;;;;5042364;28;20388;-66
2022/08/04 11:01:09;;;;;;;1.48;0.90;;;26.70;48.30;;;;;;5041639;28;20077;-65
2022/08/04 11:03:52;;;;;;;1.35;0.90;;;26.80;48.30;;;;;;5041030;28;20025;-68
2022/08/04 11:06:19;;;;;;;1.70;1.10;;;26.80;48.30;;;;;;5041777;28;20035;-66
2022/08/04 11:08:49;;;;;;;1.63;1.00;;;26.80;48.30;;;;;;5041855;28;20032;-68
2022/08/04 11:11:31;;;;;;;1.02;0.90;;;26.80;48.30;;;;;;5041503;28;20037;-66
2022/08/04 11:14:13;;;;;;;1.40;1.10;;;26.80;48.30;;;;;;5042213;28;20033;-66
2022/08/04 11:16:50;;;;;;;1.45;1.00;;;26.80;48.30;;;;;;5041586;28;20029;-66
2022/08/04 11:19:46;;;;;;;1.77;1.10;;;26.80;48.30;;;;;;5041926;28;20065;-66
2022/08/04 11:22:24;;;;;;;1.35;1.00;;;26.80;48.30;;;;;;5039360;28;20311;-68
2022/08/04 11:25:02;;;;;;;1.45;1.10;;;26.80;48.30;;;;;;5041548;28;20472;-68
2022/08/04 11:28:09;;;;;;;1.08;0.98;;;26.80;48.30;;;;;;5042294;28;20139;-65
2022/08/04 11:30:45;;;;;;;1.20;0.98;;;26.80;48.30;;;;;;5039046;28;20515;-67
2022/08/04 11:33:20;;;;;;;1.58;1.10;;;26.80;48.30;;;;;;5039944;28;20168;-66
2022/08/04 11:35:56;;;;;;;1.05;0.88;;;26.80;48.30;;;;;;5038635;28;20155;-66
2022/08/04 11:38:54;;;;;;;1.30;0.95;;;26.80;48.30;;;;;;5042099;28;20492;-66
2022/08/04 11:41:29;;;;;;;0.93;0.83;;;26.80;48.40;;;;;;5038500;28;20113;-66
2022/08/04 11:43:57;;;;;;;1.08;0.85;;;26.80;48.30;;;;;;5039953;28;20144;-66
2022/08/04 11:46:29;;;;;;;1.17;0.90;;;26.80;48.40;;;;;;5040277;28;20116;-66
2022/08/04 11:49:10;;;;;;;1.90;1.20;;;26.80;48.40;;;;;;5040508;28;20480;-67
2022/08/04 11:51:38;;;;;;;1.50;0.98;;;26.80;48.40;;;;;;5041028;28;20380;-67
2022/08/04 11:54:04;;;;;;;1.65;1.00;;;26.80;48.40;;;;;;5039043;28;20056;-66
2022/08/04 11:56:30;;;;;;;1.33;1.00;;;26.80;48.40;;;;;;5040442;28;20025;-67
2022/08/04 11:58:58;;;;;;;1.45;1.05;;;26.80;48.40;;;;;;5040115;28;20074;-67
2022/08/04 12:01:26;;;;;;;1.05;0.95;;;26.80;48.40;;;;;;5039896;28;20586;-67
2022/08/04 12:04:01;;;;;;;1.10;1.00;;;26.80;48.40;;;;;;5041481;28;20029;-67
2022/08/04 12:06:37;;;;;;;1.42;1.00;;;26.80;48.40;;;;;;5036561;28;20459;-67
2022/08/04 12:09:26;;;;;;;1.23;0.90;;;26.80;48.40;;;;;;5040409;28;20040;-67
2022/08/04 12:12:20;;;;;;;1.42;1.00;;;26.90;48.60;;;;;;5039640;28;20103;-66
2022/08/04 12:15:05;;;;;;;1.20;0.90;;;26.90;48.70;;;;;;5041786;28;20041;-66
2022/08/04 12:17:39;;;;;;;1.20;0.90;;;26.90;48.70;;;;;;5041122;28;20032;-66
2022/08/04 12:20:09;;;;;;;1.20;0.90;;;26.90;48.70;;;;;;5038187;28;20033;-68
2022/08/04 12:22:39;;;;;;;1.63;1.00;;;26.90;48.60;;;;;;5039375;28;20061;-66
2022/08/04 12:25:07;;;;;;;1.30;0.90;;;26.90;48.60;;;;;;5041040;28;20388;-68
2022/08/04 12:27:45;;;;;;;1.27;1.00;;;26.90;48.60;;;;;;5041692;28;20480;-65
2022/08/04 12:30:11;;;;;;;1.13;0.90;;;26.90;48.60;;;;;;5039727;28;20480;-65
2022/08/04 12:32:56;;;;;;;1.35;0.88;;;26.90;48.60;;;;;;5041107;28;20372;-65
2022/08/04 12:35:31;;;;;;;1.25;0.95;;;26.90;48.60;;;;;;5040594;28;20052;-66
2022/08/04 12:38:04;;;;;;;1.70;1.05;;;27.00;48.60;;;;;;5038658;28;20380;-66
2022/08/04 12:40:32;;;;;;;1.10;0.90;;;27.00;48.60;;;;;;5037020;28;20014;-66
2022/08/04 12:43:35;;;;;;;1.10;0.90;;;27.00;48.80;;;;;;5040608;28;20045;-66
2022/08/04 12:46:18;;;;;;;1.38;1.05;;;27.00;48.80;;;;;;5040778;28;20057;-66
2022/08/04 12:48:46;;;;;;;1.52;1.10;;;27.00;48.80;;;;;;5039338;28;20447;-66
2022/08/04 12:51:12;;;;;;;1.30;0.93;;;27.00;48.80;;;;;;5041133;28;20086;-66
2022/08/04 12:53:42;;;;;;;1.23;0.90;;;27.00;48.80;;;;;;5039470;28;20116;-69
2022/08/04 12:56:10;;;;;;;2.35;0.90;;;27.00;49.00;;;;;;5040282;28;20038;-66
2022/08/04 12:58:39;;;;;;;1.58;1.10;;;27.10;49.30;;;;;;5041266;28;20045;-67
2022/08/04 13:01:20;;;;;;;1.10;0.90;;;27.10;49.30;;;;;;5040316;28;20442;-66
2022/08/04 13:03:56;;;;;;;0.80;0.80;;;27.10;49.30;;;;;;5041578;28;20108;-66
2022/08/04 13:06:34;;;;;;;1.02;0.88;;;27.10;49.40;;;;;;5037978;28;20229;-67
2022/08/04 13:09:16;;;;;;;1.52;1.02;;;27.10;49.30;;;;;;5040209;28;20147;-66
2022/08/04 13:11:51;;;;;;;1.10;0.90;;;27.20;49.40;;;;;;5040715;28;20119;-66
2022/08/04 13:14:17;;;;;;;1.08;0.80;;;27.20;49.40;;;;;;5040320;28;20425;-66
2022/08/04 13:16:43;;;;;;;0.80;0.80;;;27.30;49.50;;;;;;5042132;28;20180;-67
2022/08/04 13:19:09;;;;;;;0.90;0.80;;;27.30;49.40;;;;;;5042391;28;20127;-66
2022/08/04 13:21:41;;;;;;;1.00;0.80;;;27.40;49.40;;;;;;5043100;28;20092;-66
2022/08/04 13:24:14;;;;;;;0.80;0.60;;;27.40;49.40;;;;;;5041513;28;20438;-66
2022/08/04 13:26:58;;;;;;;0.80;0.80;;;27.50;49.20;;;;;;5044287;28;20028;-67
2022/08/04 13:29:37;;;;;;;0.70;0.70;;;27.50;49.20;;;;;;5051954;28;20017;-67
2022/08/04 13:32:04;;;;;;;1.60;0.80;;;27.60;49.40;;;;;;5047425;28;20178;-67
2022/08/04 13:34:32;;;;;;;0.80;0.80;;;27.60;49.30;;;;;;5046481;28;20918;-67
2022/08/04 13:37:00;;;;;;;0.95;0.80;;;27.60;49.10;;;;;;5045584;28;20414;-68
2022/08/04 13:39:27;;;;;;;0.57;0.50;;;27.70;49.20;;;;;;5042571;28;20025;-67